Terminal Aerodrome Forecast
Issued by NWS

Home | Current Version | Previous Version | Text Only | Print | Product List | Glossary On
Versions: 1 2 3 4 5 6 7 8 9 10 11 12 13 14 15 16 17 18 19 20
000
FTAK31 PAJN 242340
TAFAPG
TAF
PAPG 242340Z 2500/2524 05009KT P6SM SCT050
     FM250400 VRB03KT P6SM SCT050
     FM250800 23004KT P6SM SCT050 BKN070 BKN100
     FM251300 26003KT P6SM BKN025 OVC050
     FM251700 05006KT P6SM SCT030 OVC050
      AMD LTD TO CLD VIS AND WIND 2506/2515=

USA.gov is the U.S. government's official web portal to all federal, state and local government web resources and services.